BGKK

Details ICAO BGKK
Name Kulusuk
Region Greenland
Timezone America/Godthab (UTC-2.0)
Plans Departing 146
Arriving 167
Stats Elevation 113 ft / 34 m (AMSL)
Location 65.573600° -37.123600°
Runways 1
Magnetic Variation 21.847° W
Sunrise 2019-05-24 04:24:38 UTC / 2019-05-24 02:24:38 Local
Sunset 2019-05-25 00:28:52 UTC / 2019-05-24 22:28:52 Local
Advertisement - Login to hide

Runways

ID Width Length Bearing (true/mag) Surface Threshold Overrun Markings Lighting
11 98 ft / 30 m 3,938 ft / 1,200 m 83.99° / 105.83° GRAVEL 0 ft / 0 m 0 ft / 0 m VISUAL EDGE THRESHOLD
29 98 ft / 30 m 3,938 ft / 1,200 m 264.01° / 285.86° GRAVEL 0 ft / 0 m 0 ft / 0 m VISUAL EDGE THRESHOLD

Map

Weather


0- 5 10 15 20 25 30 35+ Temperature / °C

Clouds and Precipitation
Forecast for 2019-05-24 12:00 UTC. Updated 5 hours ago

Ground ~20,000 ft ~40,000 ft Winds

METAR

BGKK 241350Z VRB02KT 9999 SCT008 01/M02 Q1026

TAF

Not found
Warning: Do not use this data for real-world aviation or navigation. No guarantee of current accuracy is given.